createdAt,value
2023-04-09T00:02:14.548Z,99980.03
2023-04-09T00:05:16.650Z,99981.25
2023-04-09T00:11:36.348Z,99976.41
2023-04-09T00:14:38.251Z,99981.19
2023-04-09T00:17:40.296Z,99976.91
2023-04-09T00:20:42.488Z,99979.78
2023-04-09T00:23:44.973Z,99976.09
2023-04-09T00:26:46.966Z,99977.28
2023-04-09T00:29:49.012Z,99978.69
2023-04-09T00:32:51.123Z,99969.47
2023-04-09T00:35:53.057Z,99974.97
2023-04-09T00:38:55.099Z,99977.72
2023-04-09T00:41:59.099Z,99973.03
2023-04-09T00:45:01.078Z,99974.06
2023-04-09T00:48:03.160Z,99973.97
2023-04-09T00:51:05.356Z,99968.88
2023-04-09T00:54:07.773Z,99977.53
2023-04-09T00:57:11.316Z,99972.19
2023-04-09T01:00:14.264Z,99975.53
2023-04-09T01:03:16.440Z,99970.59
2023-04-09T01:06:38.798Z,99973.97
2023-04-09T01:09:54.223Z,99968.75
2023-04-09T01:12:59.530Z,99970.50
2023-04-09T01:16:03.484Z,99972.34
2023-04-09T01:19:19.687Z,99970.03
2023-04-09T01:22:57.727Z,99973.06
2023-04-09T01:26:16.967Z,99974.06
2023-04-09T01:29:25.852Z,99970.72
2023-04-09T01:32:32.423Z,99973.81
2023-04-09T01:35:34.424Z,99970.38
2023-04-09T01:38:37.577Z,99967.19
2023-04-09T01:41:40.682Z,99981.28
2023-04-09T01:44:44.637Z,99965.94
2023-04-09T01:47:46.918Z,99965.50
2023-04-09T01:50:50.526Z,99966.13
2023-04-09T01:53:52.460Z,99968.63
2023-04-09T01:56:57.398Z,99970.75
2023-04-09T01:59:59.503Z,99970.09
2023-04-09T02:03:10.563Z,99971.28
2023-04-09T02:06:38.804Z,99966.22
2023-04-09T02:09:42.413Z,99961.84
2023-04-09T02:13:31.169Z,99965.22
2023-04-09T02:16:34.110Z,99964.06
2023-04-09T02:19:43.537Z,99963.91
2023-04-09T02:22:46.417Z,99965.91
2023-04-09T02:25:48.388Z,99965.69
2023-04-09T02:28:51.067Z,99964.56
2023-04-09T02:31:53.386Z,99957.44
2023-04-09T02:34:55.723Z,99962.75
2023-04-09T02:37:57.672Z,99960.78
2023-04-09T02:40:59.584Z,99961.94
2023-04-09T02:44:01.578Z,99966.47
2023-04-09T02:47:03.551Z,99959.84
2023-04-09T02:50:07.017Z,99960.06
2023-04-09T02:53:11.251Z,99960.66
2023-04-09T02:56:13.258Z,99958.06
2023-04-09T02:59:15.446Z,99962.22
2023-04-09T03:02:17.625Z,99965.81
2023-04-09T03:05:19.640Z,99972.44
2023-04-09T03:08:21.587Z,99971.50
2023-04-09T03:11:23.425Z,99980.38
2023-04-09T03:14:25.466Z,99970.06
2023-04-09T03:17:27.561Z,99956.59
2023-04-09T03:20:29.628Z,99958.28
2023-04-09T03:23:34.923Z,99976.19
2023-04-09T03:26:37.202Z,99960.41
2023-04-09T03:29:41.179Z,99970.16
2023-04-09T03:32:43.300Z,99961.63
2023-04-09T03:35:47.976Z,99968.06
2023-04-09T03:38:51.810Z,99966.34
2023-04-09T03:42:03.186Z,99971.22
2023-04-09T03:45:15.138Z,99963.88
2023-04-09T03:48:21.017Z,99973.69
2023-04-09T03:51:23.188Z,99965.50
2023-04-09T03:54:30.926Z,99964.94
2023-04-09T03:57:33.760Z,99971.66
2023-04-09T04:00:36.234Z,99981.75
2023-04-09T04:03:56.881Z,99984.88
2023-04-09T04:07:03.348Z,99981.06
2023-04-09T04:10:09.869Z,99975.78
2023-04-09T04:13:17.042Z,99982.00
2023-04-09T04:16:25.976Z,99985.66
2023-04-09T04:19:29.133Z,99989.00
2023-04-09T04:22:31.810Z,99994.97
2023-04-09T04:25:35.457Z,99993.56
2023-04-09T04:28:41.155Z,99994.72
2023-04-09T04:31:47.085Z,100003.13
2023-04-09T04:34:51.551Z,99996.69
2023-04-09T04:38:01.490Z,100007.88
2023-04-09T04:41:05.458Z,100004.53
2023-04-09T04:44:11.128Z,99997.31
2023-04-09T04:47:13.987Z,99993.72
2023-04-09T04:50:17.036Z,100001.31
2023-04-09T04:53:32.782Z,100003.41
2023-04-09T04:56:39.303Z,100007.22
2023-04-09T04:59:50.973Z,99999.00
2023-04-09T05:02:53.884Z,100004.25
2023-04-09T05:06:29.746Z,99999.81
2023-04-09T05:09:33.289Z,100004.34
2023-04-09T05:12:39.562Z,100011.84
2023-04-09T05:15:43.243Z,100010.34
2023-04-09T05:18:47.308Z,100017.50
2023-04-09T05:21:49.845Z,100014.00
2023-04-09T05:24:56.959Z,100012.63
2023-04-09T05:27:59.599Z,100009.63
2023-04-09T05:31:01.754Z,100018.75
2023-04-09T05:34:06.486Z,100030.41
2023-04-09T05:37:21.405Z,100027.03
2023-04-09T05:40:26.811Z,100030.06
2023-04-09T05:43:29.594Z,100038.44
2023-04-09T05:46:31.771Z,100041.53
2023-04-09T05:49:35.018Z,100035.63
2023-04-09T05:52:42.144Z,100043.75
2023-04-09T05:55:46.915Z,100046.56
2023-04-09T05:58:49.041Z,100039.75
2023-04-09T06:01:51.047Z,100049.69
2023-04-09T06:04:53.006Z,100044.19
2023-04-09T06:07:55.237Z,100045.78
2023-04-09T06:10:59.005Z,100049.91
2023-04-09T06:14:00.877Z,100050.00
2023-04-09T06:17:03.579Z,100058.16
2023-04-09T06:20:06.704Z,100059.91
2023-04-09T06:23:10.018Z,100053.91
2023-04-09T06:26:11.956Z,100061.06
2023-04-09T06:29:15.716Z,100060.09
2023-04-09T06:32:17.788Z,100058.56
2023-04-09T06:35:19.714Z,100059.63
2023-04-09T06:38:21.743Z,100063.28
2023-04-09T06:41:23.684Z,100064.84
2023-04-09T06:44:25.473Z,100064.03
2023-04-09T06:47:27.423Z,100067.78
2023-04-09T06:50:29.493Z,100069.50
2023-04-09T06:53:31.423Z,100068.44
2023-04-09T06:56:34.150Z,100075.75
2023-04-09T06:59:36.331Z,100072.84
2023-04-09T07:02:38.683Z,100081.41
2023-04-09T07:05:41.358Z,100082.16
2023-04-09T07:08:43.315Z,100082.88
2023-04-09T07:11:45.517Z,100084.19
2023-04-09T07:14:47.696Z,100081.69
2023-04-09T07:17:49.643Z,100083.06
2023-04-09T07:20:52.685Z,100083.13
2023-04-09T07:23:54.948Z,100083.91
2023-04-09T07:26:56.997Z,100088.06
2023-04-09T07:29:59.613Z,100079.84
2023-04-09T07:33:01.623Z,100085.06
2023-04-09T07:36:04.026Z,100086.47
2023-04-09T07:39:05.878Z,100092.00
2023-04-09T07:42:07.905Z,100096.13
2023-04-09T07:45:09.970Z,100099.78
2023-04-09T07:48:12.905Z,100102.03
2023-04-09T07:51:15.353Z,100097.00
2023-04-09T07:54:17.223Z,100099.19
2023-04-09T07:57:19.274Z,100100.97
2023-04-09T08:00:21.223Z,100099.03
2023-04-09T08:03:23.378Z,100097.03
2023-04-09T08:06:26.445Z,100099.47
2023-04-09T08:09:28.438Z,100099.84
2023-04-09T08:12:30.459Z,100101.03
2023-04-09T08:15:32.794Z,100099.75
2023-04-09T08:18:34.887Z,100102.63
2023-04-09T08:21:38.794Z,100103.97
2023-04-09T08:24:40.795Z,100100.09
2023-04-09T08:27:42.638Z,100096.16
2023-04-09T08:30:45.100Z,100099.78
2023-04-09T08:33:47.166Z,100106.69
2023-04-09T08:36:50.107Z,100103.28
2023-04-09T08:39:52.222Z,100106.16
2023-04-09T08:42:56.830Z,100104.66
2023-04-09T08:45:59.662Z,100103.97
2023-04-09T08:49:02.133Z,100102.06
2023-04-09T08:52:04.234Z,100088.94
2023-04-09T08:55:07.745Z,100100.81
2023-04-09T08:58:10.702Z,100105.00
2023-04-09T09:01:39.012Z,100109.34
2023-04-09T09:04:48.720Z,100104.19
2023-04-09T09:07:54.756Z,100111.06
2023-04-09T09:10:57.268Z,100102.94
2023-04-09T09:14:01.474Z,100100.50
2023-04-09T09:17:05.354Z,100099.53
2023-04-09T09:20:20.991Z,100100.78
2023-04-09T09:23:36.791Z,100107.34
2023-04-09T09:26:38.925Z,100103.69
2023-04-09T09:29:45.142Z,100099.63
2023-04-09T09:32:47.406Z,100108.81
2023-04-09T09:35:51.074Z,100099.91
2023-04-09T09:38:58.092Z,100096.88
2023-04-09T09:42:09.349Z,100098.75
2023-04-09T09:45:20.567Z,100094.56
2023-04-09T09:48:22.579Z,100089.78
2023-04-09T09:51:27.820Z,100079.59
2023-04-09T09:54:39.002Z,100086.41
2023-04-09T09:57:44.901Z,100093.13
2023-04-09T10:00:48.508Z,100091.16
2023-04-09T10:03:51.819Z,100087.09
2023-04-09T10:06:54.072Z,100093.56
2023-04-09T10:09:57.361Z,100091.28
2023-04-09T10:12:59.906Z,100085.00
2023-04-09T10:16:02.704Z,100085.84
2023-04-09T10:19:05.197Z,100092.28
2023-04-09T10:22:12.033Z,100093.88
2023-04-09T10:25:14.639Z,100091.66
2023-04-09T10:28:18.628Z,100089.81
2023-04-09T10:31:20.974Z,100082.81
2023-04-09T10:34:26.875Z,100087.13
2023-04-09T10:37:28.967Z,100080.94
2023-04-09T10:40:31.388Z,100083.69
2023-04-09T10:43:36.722Z,100083.50
2023-04-09T10:46:42.318Z,100078.59
2023-04-09T10:49:44.664Z,100073.19
2023-04-09T10:52:47.800Z,100075.50
2023-04-09T10:55:51.455Z,100069.16
2023-04-09T10:58:53.588Z,100071.88
2023-04-09T11:01:56.151Z,100071.56
2023-04-09T11:05:22.453Z,100067.34
2023-04-09T11:08:28.135Z,100060.81
2023-04-09T11:11:30.122Z,100056.97
2023-04-09T11:14:34.007Z,100060.66
2023-04-09T11:17:36.793Z,100057.25
2023-04-09T11:20:38.863Z,100053.41
2023-04-09T11:23:41.095Z,100053.28
2023-04-09T11:26:43.051Z,100052.56
2023-04-09T11:29:45.307Z,100055.38
2023-04-09T11:32:51.437Z,100051.50
2023-04-09T11:35:53.447Z,100057.94
2023-04-09T11:38:56.016Z,100060.72
2023-04-09T11:41:57.969Z,100051.97
2023-04-09T11:45:01.153Z,100049.06
2023-04-09T11:48:03.470Z,100051.94
2023-04-09T11:51:06.503Z,100046.88
2023-04-09T11:54:08.519Z,100053.16
2023-04-09T11:57:10.825Z,100043.69
2023-04-09T12:00:17.019Z,100047.72
2023-04-09T12:03:19.569Z,100056.06
2023-04-09T12:06:25.712Z,100048.25
2023-04-09T12:09:27.737Z,100052.09
2023-04-09T12:12:30.110Z,100054.75
2023-04-09T12:15:34.362Z,100051.41
2023-04-09T12:18:38.110Z,100051.22
2023-04-09T12:21:47.848Z,100040.84
2023-04-09T12:24:49.750Z,100052.00
2023-04-09T12:27:51.778Z,100051.28
2023-04-09T12:30:54.597Z,100050.84
2023-04-09T12:33:56.806Z,100046.81
2023-04-09T12:36:59.644Z,100040.19
2023-04-09T12:40:01.573Z,100040.81
2023-04-09T12:43:03.703Z,100041.78
2023-04-09T12:46:05.803Z,100037.63
2023-04-09T12:49:07.670Z,100043.03
2023-04-09T12:52:09.616Z,100042.88
2023-04-09T12:55:12.679Z,100038.19
2023-04-09T12:58:14.529Z,100034.56
2023-04-09T13:01:16.430Z,100038.59
2023-04-09T13:04:18.490Z,100033.97
2023-04-09T13:07:20.670Z,100030.16
2023-04-09T13:10:22.957Z,100027.16
2023-04-09T13:13:25.098Z,100031.56
2023-04-09T13:16:27.336Z,100025.00
2023-04-09T13:19:29.259Z,100025.84
2023-04-09T13:22:31.284Z,100023.06
2023-04-09T13:25:33.221Z,100025.84
2023-04-09T13:28:35.554Z,100022.38
2023-04-09T13:31:37.652Z,100018.31
2023-04-09T13:34:40.577Z,100017.41
2023-04-09T13:37:42.482Z,100022.81
2023-04-09T13:40:44.448Z,100018.28
2023-04-09T13:43:46.508Z,100011.28
2023-04-09T13:46:48.723Z,100010.94
2023-04-09T13:49:51.706Z,100009.78
2023-04-09T13:52:53.575Z,100008.69
2023-04-09T13:55:55.540Z,100012.66
2023-04-09T13:58:57.686Z,100007.75
2023-04-09T14:02:00.792Z,100012.31
2023-04-09T14:05:04.030Z,100001.13
2023-04-09T14:08:06.686Z,99997.63
2023-04-09T14:11:08.638Z,100005.41
2023-04-09T14:14:11.086Z,100006.78
2023-04-09T14:17:12.976Z,100005.72
2023-04-09T14:20:14.925Z,100001.13
2023-04-09T14:23:16.854Z,99996.94
2023-04-09T14:26:20.749Z,100002.44
2023-04-09T14:29:24.814Z,99998.28
2023-04-09T14:32:26.834Z,99997.91
2023-04-09T14:35:28.951Z,99999.38
2023-04-09T14:38:31.028Z,99992.13
2023-04-09T14:41:34.340Z,99995.16
2023-04-09T14:44:36.371Z,99994.44
2023-04-09T14:47:38.218Z,99997.13
2023-04-09T14:50:41.222Z,99991.81
2023-04-09T14:53:43.222Z,99998.16
2023-04-09T14:56:45.597Z,99992.13
2023-04-09T14:59:47.701Z,99991.00
2023-04-09T15:02:49.972Z,99986.19
2023-04-09T15:05:52.173Z,99993.47
2023-04-09T15:08:54.328Z,99989.09
2023-04-09T15:11:57.125Z,99986.84
2023-04-09T15:14:59.328Z,99986.94
2023-04-09T15:18:05.686Z,99989.25
2023-04-09T15:21:08.306Z,99986.41
2023-04-09T15:24:10.386Z,99979.16
2023-04-09T15:27:12.363Z,99976.91
2023-04-09T15:30:14.372Z,99983.28
2023-04-09T15:33:16.366Z,99988.88
2023-04-09T15:36:18.289Z,99989.13
2023-04-09T15:39:52.584Z,99987.28
2023-04-09T15:42:55.089Z,99990.31
2023-04-09T15:45:57.037Z,99989.56
2023-04-09T15:49:00.530Z,99982.09
2023-04-09T15:52:02.482Z,99975.94
2023-04-09T15:55:04.733Z,99982.31
2023-04-09T15:58:06.804Z,99984.19
2023-04-09T16:01:09.636Z,99982.53
2023-04-09T16:04:11.634Z,99984.56
2023-04-09T16:07:17.471Z,99974.28
2023-04-09T16:10:19.530Z,99974.13
2023-04-09T16:13:21.418Z,99970.28
2023-04-09T16:16:23.634Z,99977.22
2023-04-09T16:19:26.183Z,99977.22
2023-04-09T16:22:28.972Z,99986.91
2023-04-09T16:25:30.939Z,99974.63
2023-04-09T16:28:33.074Z,99980.78
2023-04-09T16:31:36.128Z,99977.47
2023-04-09T16:34:38.115Z,99973.03
2023-04-09T16:37:40.045Z,99973.13
2023-04-09T16:40:41.996Z,99974.41
2023-04-09T16:43:43.855Z,99954.09
2023-04-09T16:46:45.883Z,99976.50
2023-04-09T16:49:48.484Z,99980.38
2023-04-09T16:52:50.453Z,99976.19
2023-04-09T16:55:52.355Z,99983.59
2023-04-09T16:58:55.374Z,99992.19
2023-04-09T17:01:58.406Z,99986.78
2023-04-09T17:05:00.725Z,99987.94
2023-04-09T17:08:02.953Z,99985.97
2023-04-09T17:11:05.031Z,99990.75
2023-04-09T17:14:07.075Z,99989.09
2023-04-09T17:17:09.321Z,99979.75
2023-04-09T17:20:12.130Z,99986.59
2023-04-09T17:23:14.824Z,99987.97
2023-04-09T17:26:16.906Z,99987.31
2023-04-09T17:29:19.448Z,99986.34
2023-04-09T17:32:21.567Z,99982.41
2023-04-09T17:35:23.600Z,99990.38
2023-04-09T17:38:27.080Z,99993.41
2023-04-09T17:41:29.271Z,99998.09
2023-04-09T17:44:35.127Z,99984.81
2023-04-09T17:47:37.285Z,99997.72
2023-04-09T17:50:39.311Z,99998.69
2023-04-09T17:53:41.223Z,99999.81
2023-04-09T17:56:43.279Z,100007.03
2023-04-09T17:59:45.200Z,100001.41
2023-04-09T18:02:47.504Z,100010.59
2023-04-09T18:05:49.592Z,100016.06
2023-04-09T18:08:52.460Z,100007.81
2023-04-09T18:11:56.482Z,100012.19
2023-04-09T18:14:58.399Z,100009.00
2023-04-09T18:18:00.582Z,100006.44
2023-04-09T18:21:02.978Z,100008.03
2023-04-09T18:24:05.140Z,100005.69
2023-04-09T18:27:07.119Z,100010.81
2023-04-09T18:30:09.756Z,100013.63
2023-04-09T18:33:11.754Z,100008.78
2023-04-09T18:36:13.823Z,100011.13
2023-04-09T18:39:16.210Z,100017.94
2023-04-09T18:42:18.195Z,100018.19
2023-04-09T18:45:20.360Z,100016.19
2023-04-09T18:48:23.240Z,100020.66
2023-04-09T18:51:26.320Z,100017.03
2023-04-09T18:54:28.328Z,100017.03
2023-04-09T18:57:30.383Z,100021.28
2023-04-09T19:00:32.470Z,100020.81
2023-04-09T19:03:34.473Z,100029.34
2023-04-09T19:06:36.582Z,100023.53
2023-04-09T19:09:38.676Z,100025.56
2023-04-09T19:12:47.491Z,100031.69
2023-04-09T19:15:49.513Z,100032.22
2023-04-09T19:18:51.663Z,100035.09
2023-04-09T19:21:53.683Z,100037.59
2023-04-09T19:24:55.554Z,100033.56
2023-04-09T19:27:57.673Z,100032.81
2023-04-09T19:31:02.078Z,100025.94
2023-04-09T19:34:06.187Z,100033.78
2023-04-09T19:37:08.149Z,100031.72
2023-04-09T19:40:10.855Z,100031.66
2023-04-09T19:43:13.294Z,100035.84
2023-04-09T19:46:15.405Z,100041.47
2023-04-09T19:49:17.312Z,100044.69
2023-04-09T19:52:20.908Z,100044.22
2023-04-09T19:55:22.911Z,100046.38
2023-04-09T19:58:25.117Z,100042.97
2023-04-09T20:01:27.273Z,100037.63
2023-04-09T20:04:30.964Z,100046.41
2023-04-09T20:07:32.949Z,100047.38
2023-04-09T20:10:39.829Z,100043.97
2023-04-09T20:13:41.800Z,100050.03
2023-04-09T20:16:43.725Z,100045.16
2023-04-09T20:19:46.134Z,100047.72
2023-04-09T20:22:55.638Z,100045.06
2023-04-09T20:25:58.451Z,100043.16
2023-04-09T20:29:00.420Z,100042.41
2023-04-09T20:32:03.467Z,100045.94
2023-04-09T20:35:06.034Z,100052.97
2023-04-09T20:38:08.042Z,100043.59
2023-04-09T20:41:09.939Z,100041.63
2023-04-09T20:44:12.186Z,100043.59
2023-04-09T20:47:15.516Z,100044.78
2023-04-09T20:50:19.368Z,100038.09
2023-04-09T20:53:21.924Z,100038.09
2023-04-09T20:56:23.816Z,100039.34
2023-04-09T20:59:26.431Z,100040.91
2023-04-09T21:02:28.808Z,100045.88
2023-04-09T21:05:30.770Z,100035.78
2023-04-09T21:08:33.184Z,100036.88
2023-04-09T21:11:35.340Z,100039.78
2023-04-09T21:14:37.257Z,100037.34
2023-04-09T21:17:39.208Z,100040.78
2023-04-09T21:20:48.337Z,100037.72
2023-04-09T21:23:50.246Z,100040.44
2023-04-09T21:26:52.582Z,100035.56
2023-04-09T21:29:55.059Z,100034.63
2023-04-09T21:32:57.201Z,100047.97
2023-04-09T21:35:59.132Z,100048.06
2023-04-09T21:39:01.525Z,100040.03
2023-04-09T21:42:03.449Z,100038.09
2023-04-09T21:45:05.966Z,100036.97
2023-04-09T21:48:09.228Z,100045.88
2023-04-09T21:51:11.891Z,100037.78
2023-04-09T21:54:13.787Z,100043.22
2023-04-09T21:57:15.772Z,100039.97
2023-04-09T22:00:17.781Z,100048.78
2023-04-09T22:03:20.135Z,100045.59
2023-04-09T22:06:22.362Z,100042.47
2023-04-09T22:09:24.899Z,100040.97
2023-04-09T22:12:26.803Z,100041.72
2023-04-09T22:15:29.077Z,100044.47
2023-04-09T22:18:31.219Z,100044.50
2023-04-09T22:21:33.161Z,100050.00
2023-04-09T22:24:34.998Z,100053.59
2023-04-09T22:27:36.931Z,100049.31
2023-04-09T22:30:38.790Z,100059.75
2023-04-09T22:33:40.986Z,100049.31
2023-04-09T22:36:44.396Z,100058.91
2023-04-09T22:39:46.380Z,100050.00
2023-04-09T22:42:48.672Z,100059.09
2023-04-09T22:45:52.321Z,100053.72
2023-04-09T22:48:54.281Z,100059.50
2023-04-09T22:51:56.464Z,100050.66
2023-04-09T22:54:58.769Z,100052.47
2023-04-09T22:58:00.868Z,100051.13
2023-04-09T23:01:03.658Z,100055.75
2023-04-09T23:04:05.840Z,100046.53
2023-04-09T23:07:08.116Z,100039.63
2023-04-09T23:10:14.142Z,100046.00
2023-04-09T23:13:18.069Z,100042.59
2023-04-09T23:16:20.042Z,100039.38
2023-04-09T23:19:21.952Z,100029.75
2023-04-09T23:22:24.384Z,100041.94
2023-04-09T23:25:26.764Z,100029.16
2023-04-09T23:28:29.059Z,100025.78
2023-04-09T23:31:31.077Z,100029.00
2023-04-09T23:34:33.035Z,100021.63
2023-04-09T23:37:34.865Z,100020.31
2023-04-09T23:40:37.104Z,100021.56
2023-04-09T23:43:39.013Z,100027.03
2023-04-09T23:46:41.648Z,100014.88
2023-04-09T23:49:43.685Z,100022.78
2023-04-09T23:52:47.928Z,100021.72
2023-04-09T23:55:51.066Z,100017.31
2023-04-09T23:58:52.950Z,100013.00
